sensor_id;sensor_type;location;lat;lon;timestamp;P1;durP1;ratioP1;P2;durP2;ratioP2
70078;SDS011;57451;52.496;13.456;2023-07-16T00:00:55;7.88;;;3.97;;
70078;SDS011;57451;52.496;13.456;2023-07-16T00:03:23;6.53;;;4.00;;
70078;SDS011;57451;52.496;13.456;2023-07-16T00:05:52;7.30;;;4.72;;
70078;SDS011;57451;52.496;13.456;2023-07-16T00:08:21;5.97;;;3.88;;
70078;SDS011;57451;52.496;13.456;2023-07-16T00:10:49;6.55;;;3.65;;
70078;SDS011;57451;52.496;13.456;2023-07-16T00:13:18;6.70;;;3.90;;
70078;SDS011;57451;52.496;13.456;2023-07-16T00:15:45;6.47;;;4.00;;
70078;SDS011;57451;52.496;13.456;2023-07-16T00:18:13;6.03;;;4.00;;
70078;SDS011;57451;52.496;13.456;2023-07-16T00:20:40;6.85;;;3.95;;
70078;SDS011;57451;52.496;13.456;2023-07-16T00:23:07;6.57;;;4.25;;
70078;SDS011;57451;52.496;13.456;2023-07-16T00:25:35;6.43;;;4.13;;
70078;SDS011;57451;52.496;13.456;2023-07-16T00:28:02;7.47;;;4.20;;
70078;SDS011;57451;52.496;13.456;2023-07-16T00:30:32;5.85;;;3.78;;
70078;SDS011;57451;52.496;13.456;2023-07-16T00:33:10;6.80;;;3.75;;
70078;SDS011;57451;52.496;13.456;2023-07-16T00:35:38;7.80;;;4.05;;
70078;SDS011;57451;52.496;13.456;2023-07-16T00:38:10;6.28;;;4.03;;
70078;SDS011;57451;52.496;13.456;2023-07-16T00:40:37;7.73;;;3.77;;
70078;SDS011;57451;52.496;13.456;2023-07-16T00:43:04;8.10;;;4.55;;
70078;SDS011;57451;52.496;13.456;2023-07-16T00:45:33;7.95;;;4.20;;
70078;SDS011;57451;52.496;13.456;2023-07-16T00:48:00;8.20;;;4.50;;
70078;SDS011;57451;52.496;13.456;2023-07-16T00:50:28;8.35;;;4.22;;
70078;SDS011;57451;52.496;13.456;2023-07-16T00:53:00;6.33;;;4.20;;
70078;SDS011;57451;52.496;13.456;2023-07-16T00:55:28;7.78;;;4.38;;
70078;SDS011;57451;52.496;13.456;2023-07-16T00:57:57;6.88;;;4.40;;
70078;SDS011;57451;52.496;13.456;2023-07-16T01:00:33;8.40;;;4.55;;
70078;SDS011;57451;52.496;13.456;2023-07-16T01:03:01;8.15;;;4.57;;
70078;SDS011;57451;52.496;13.456;2023-07-16T01:05:31;8.87;;;4.60;;
70078;SDS011;57451;52.496;13.456;2023-07-16T01:08:04;7.75;;;4.47;;
70078;SDS011;57451;52.496;13.456;2023-07-16T01:10:35;7.10;;;4.40;;
70078;SDS011;57451;52.496;13.456;2023-07-16T01:13:04;6.85;;;4.47;;
70078;SDS011;57451;52.496;13.456;2023-07-16T01:15:33;6.78;;;4.63;;
70078;SDS011;57451;52.496;13.456;2023-07-16T01:18:00;6.00;;;4.10;;
70078;SDS011;57451;52.496;13.456;2023-07-16T01:20:27;5.45;;;4.10;;
70078;SDS011;57451;52.496;13.456;2023-07-16T01:23:01;6.75;;;4.55;;
70078;SDS011;57451;52.496;13.456;2023-07-16T01:25:53;7.03;;;4.57;;
70078;SDS011;57451;52.496;13.456;2023-07-16T01:31:32;7.23;;;4.47;;
70078;SDS011;57451;52.496;13.456;2023-07-16T01:34:01;7.78;;;4.57;;
70078;SDS011;57451;52.496;13.456;2023-07-16T01:36:31;7.10;;;5.35;;
70078;SDS011;57451;52.496;13.456;2023-07-16T01:39:01;7.78;;;5.00;;
70078;SDS011;57451;52.496;13.456;2023-07-16T01:41:29;7.78;;;5.38;;
70078;SDS011;57451;52.496;13.456;2023-07-16T01:43:56;8.33;;;5.57;;
70078;SDS011;57451;52.496;13.456;2023-07-16T01:46:25;7.85;;;5.50;;
70078;SDS011;57451;52.496;13.456;2023-07-16T01:48:52;9.60;;;5.65;;
70078;SDS011;57451;52.496;13.456;2023-07-16T01:51:21;7.55;;;5.28;;
70078;SDS011;57451;52.496;13.456;2023-07-16T01:53:48;7.57;;;5.63;;
70078;SDS011;57451;52.496;13.456;2023-07-16T01:56:16;7.43;;;4.77;;
70078;SDS011;57451;52.496;13.456;2023-07-16T01:58:47;8.32;;;4.97;;
70078;SDS011;57451;52.496;13.456;2023-07-16T02:01:14;8.75;;;5.00;;
70078;SDS011;57451;52.496;13.456;2023-07-16T02:03:43;8.95;;;5.28;;
70078;SDS011;57451;52.496;13.456;2023-07-16T02:06:10;6.03;;;4.38;;
70078;SDS011;57451;52.496;13.456;2023-07-16T02:08:38;6.00;;;4.00;;
70078;SDS011;57451;52.496;13.456;2023-07-16T02:11:05;6.47;;;4.22;;
70078;SDS011;57451;52.496;13.456;2023-07-16T02:13:32;6.45;;;4.15;;
70078;SDS011;57451;52.496;13.456;2023-07-16T02:15:59;5.10;;;3.50;;
70078;SDS011;57451;52.496;13.456;2023-07-16T02:18:27;5.90;;;3.63;;
70078;SDS011;57451;52.496;13.456;2023-07-16T02:20:55;4.97;;;3.60;;
70078;SDS011;57451;52.496;13.456;2023-07-16T02:23:23;6.60;;;3.42;;
70078;SDS011;57451;52.496;13.456;2023-07-16T02:25:53;5.30;;;3.40;;
70078;SDS011;57451;52.496;13.456;2023-07-16T02:28:20;5.85;;;3.60;;
70078;SDS011;57451;52.496;13.456;2023-07-16T02:30:48;6.75;;;3.20;;
70078;SDS011;57451;52.496;13.456;2023-07-16T02:33:15;6.07;;;3.63;;
70078;SDS011;57451;52.496;13.456;2023-07-16T02:35:45;6.32;;;3.60;;
70078;SDS011;57451;52.496;13.456;2023-07-16T02:38:16;6.03;;;3.47;;
70078;SDS011;57451;52.496;13.456;2023-07-16T02:40:43;5.55;;;3.38;;
70078;SDS011;57451;52.496;13.456;2023-07-16T02:43:11;5.60;;;3.10;;
70078;SDS011;57451;52.496;13.456;2023-07-16T02:45:39;8.20;;;3.20;;
70078;SDS011;57451;52.496;13.456;2023-07-16T02:48:06;7.25;;;3.45;;
70078;SDS011;57451;52.496;13.456;2023-07-16T02:50:34;7.03;;;3.13;;
70078;SDS011;57451;52.496;13.456;2023-07-16T02:53:03;5.57;;;3.42;;
70078;SDS011;57451;52.496;13.456;2023-07-16T02:55:31;6.07;;;3.47;;
70078;SDS011;57451;52.496;13.456;2023-07-16T02:57:59;5.93;;;3.80;;
70078;SDS011;57451;52.496;13.456;2023-07-16T03:00:29;5.25;;;3.22;;
70078;SDS011;57451;52.496;13.456;2023-07-16T03:02:56;5.22;;;3.55;;
70078;SDS011;57451;52.496;13.456;2023-07-16T03:05:26;4.97;;;3.10;;
70078;SDS011;57451;52.496;13.456;2023-07-16T03:07:56;5.68;;;3.50;;
70078;SDS011;57451;52.496;13.456;2023-07-16T03:10:24;5.47;;;3.30;;
70078;SDS011;57451;52.496;13.456;2023-07-16T03:12:54;7.47;;;3.30;;
70078;SDS011;57451;52.496;13.456;2023-07-16T03:15:22;4.82;;;3.13;;
70078;SDS011;57451;52.496;13.456;2023-07-16T03:17:49;5.93;;;3.17;;
70078;SDS011;57451;52.496;13.456;2023-07-16T03:20:17;6.57;;;3.35;;
70078;SDS011;57451;52.496;13.456;2023-07-16T03:22:44;5.70;;;3.20;;
70078;SDS011;57451;52.496;13.456;2023-07-16T03:25:11;5.25;;;3.28;;
70078;SDS011;57451;52.496;13.456;2023-07-16T03:27:39;8.93;;;3.35;;
70078;SDS011;57451;52.496;13.456;2023-07-16T03:30:09;6.13;;;3.22;;
70078;SDS011;57451;52.496;13.456;2023-07-16T03:32:37;6.38;;;3.33;;
70078;SDS011;57451;52.496;13.456;2023-07-16T03:35:19;5.47;;;2.90;;
70078;SDS011;57451;52.496;13.456;2023-07-16T03:37:50;5.55;;;2.78;;
70078;SDS011;57451;52.496;13.456;2023-07-16T03:40:18;5.20;;;3.17;;
70078;SDS011;57451;52.496;13.456;2023-07-16T03:42:49;4.72;;;2.70;;
70078;SDS011;57451;52.496;13.456;2023-07-16T03:45:18;6.68;;;2.65;;
70078;SDS011;57451;52.496;13.456;2023-07-16T03:47:46;4.83;;;2.80;;
70078;SDS011;57451;52.496;13.456;2023-07-16T03:50:13;5.55;;;2.60;;
70078;SDS011;57451;52.496;13.456;2023-07-16T03:52:41;4.70;;;2.50;;
70078;SDS011;57451;52.496;13.456;2023-07-16T03:55:08;5.07;;;2.63;;
70078;SDS011;57451;52.496;13.456;2023-07-16T03:57:36;5.05;;;3.10;;
70078;SDS011;57451;52.496;13.456;2023-07-16T04:00:04;4.40;;;2.60;;
70078;SDS011;57451;52.496;13.456;2023-07-16T04:02:42;4.90;;;2.85;;
70078;SDS011;57451;52.496;13.456;2023-07-16T04:05:15;5.38;;;2.70;;
70078;SDS011;57451;52.496;13.456;2023-07-16T04:07:43;4.82;;;2.78;;
70078;SDS011;57451;52.496;13.456;2023-07-16T04:10:10;5.47;;;3.00;;
70078;SDS011;57451;52.496;13.456;2023-07-16T04:12:37;6.10;;;2.80;;
70078;SDS011;57451;52.496;13.456;2023-07-16T04:15:07;4.57;;;2.47;;
70078;SDS011;57451;52.496;13.456;2023-07-16T04:17:37;7.45;;;2.53;;
70078;SDS011;57451;52.496;13.456;2023-07-16T04:20:07;5.05;;;2.60;;
70078;SDS011;57451;52.496;13.456;2023-07-16T04:22:35;5.30;;;2.85;;
70078;SDS011;57451;52.496;13.456;2023-07-16T04:25:03;6.17;;;2.97;;
70078;SDS011;57451;52.496;13.456;2023-07-16T04:27:31;4.80;;;2.80;;
70078;SDS011;57451;52.496;13.456;2023-07-16T04:29:58;5.65;;;3.00;;
70078;SDS011;57451;52.496;13.456;2023-07-16T04:32:25;5.07;;;2.70;;
70078;SDS011;57451;52.496;13.456;2023-07-16T04:34:53;6.00;;;2.88;;
70078;SDS011;57451;52.496;13.456;2023-07-16T04:37:21;4.97;;;2.87;;
70078;SDS011;57451;52.496;13.456;2023-07-16T04:39:48;6.47;;;3.40;;
70078;SDS011;57451;52.496;13.456;2023-07-16T04:42:16;5.47;;;3.15;;
70078;SDS011;57451;52.496;13.456;2023-07-16T04:44:44;5.18;;;3.20;;
70078;SDS011;57451;52.496;13.456;2023-07-16T04:47:11;6.50;;;3.22;;
70078;SDS011;57451;52.496;13.456;2023-07-16T04:49:38;5.40;;;3.20;;
70078;SDS011;57451;52.496;13.456;2023-07-16T04:52:06;6.90;;;3.22;;
70078;SDS011;57451;52.496;13.456;2023-07-16T04:54:37;6.43;;;3.45;;
70078;SDS011;57451;52.496;13.456;2023-07-16T04:57:06;6.05;;;3.35;;
70078;SDS011;57451;52.496;13.456;2023-07-16T04:59:34;6.32;;;3.60;;
70078;SDS011;57451;52.496;13.456;2023-07-16T05:02:01;6.73;;;3.87;;
70078;SDS011;57451;52.496;13.456;2023-07-16T05:04:31;6.10;;;3.80;;
70078;SDS011;57451;52.496;13.456;2023-07-16T05:06:59;5.38;;;3.60;;
70078;SDS011;57451;52.496;13.456;2023-07-16T05:09:27;6.82;;;4.07;;
70078;SDS011;57451;52.496;13.456;2023-07-16T05:11:56;5.65;;;3.55;;
70078;SDS011;57451;52.496;13.456;2023-07-16T05:14:25;6.50;;;3.60;;
70078;SDS011;57451;52.496;13.456;2023-07-16T05:16:54;5.35;;;3.65;;
70078;SDS011;57451;52.496;13.456;2023-07-16T05:19:21;6.97;;;3.90;;
70078;SDS011;57451;52.496;13.456;2023-07-16T05:21:49;5.63;;;3.60;;
70078;SDS011;57451;52.496;13.456;2023-07-16T05:24:16;6.20;;;3.63;;
70078;SDS011;57451;52.496;13.456;2023-07-16T05:26:43;5.63;;;3.83;;
70078;SDS011;57451;52.496;13.456;2023-07-16T05:29:12;5.72;;;3.97;;
70078;SDS011;57451;52.496;13.456;2023-07-16T05:31:39;6.35;;;3.97;;
70078;SDS011;57451;52.496;13.456;2023-07-16T05:34:06;7.50;;;3.60;;
70078;SDS011;57451;52.496;13.456;2023-07-16T05:36:34;6.47;;;3.40;;
70078;SDS011;57451;52.496;13.456;2023-07-16T05:39:01;6.57;;;3.63;;
70078;SDS011;57451;52.496;13.456;2023-07-16T05:41:28;7.38;;;3.78;;
70078;SDS011;57451;52.496;13.456;2023-07-16T05:43:56;6.38;;;3.70;;
70078;SDS011;57451;52.496;13.456;2023-07-16T05:46:24;6.65;;;3.63;;
70078;SDS011;57451;52.496;13.456;2023-07-16T05:48:52;6.13;;;3.53;;
70078;SDS011;57451;52.496;13.456;2023-07-16T05:51:19;6.60;;;3.80;;
70078;SDS011;57451;52.496;13.456;2023-07-16T05:53:46;5.60;;;3.55;;
70078;SDS011;57451;52.496;13.456;2023-07-16T05:56:14;6.15;;;3.40;;
70078;SDS011;57451;52.496;13.456;2023-07-16T05:58:42;4.75;;;3.30;;
70078;SDS011;57451;52.496;13.456;2023-07-16T06:01:09;5.68;;;3.50;;
70078;SDS011;57451;52.496;13.456;2023-07-16T06:03:37;8.03;;;3.80;;
70078;SDS011;57451;52.496;13.456;2023-07-16T06:06:05;5.65;;;3.70;;
70078;SDS011;57451;52.496;13.456;2023-07-16T06:08:34;5.55;;;3.63;;
70078;SDS011;57451;52.496;13.456;2023-07-16T06:11:02;5.05;;;3.50;;
70078;SDS011;57451;52.496;13.456;2023-07-16T06:13:30;5.82;;;3.53;;
70078;SDS011;57451;52.496;13.456;2023-07-16T06:15:58;6.47;;;3.80;;
70078;SDS011;57451;52.496;13.456;2023-07-16T06:18:25;5.68;;;3.90;;
70078;SDS011;57451;52.496;13.456;2023-07-16T06:20:54;6.75;;;3.60;;
70078;SDS011;57451;52.496;13.456;2023-07-16T06:23:22;5.93;;;3.15;;
70078;SDS011;57451;52.496;13.456;2023-07-16T06:25:53;5.88;;;3.60;;
70078;SDS011;57451;52.496;13.456;2023-07-16T06:28:21;5.30;;;3.07;;
70078;SDS011;57451;52.496;13.456;2023-07-16T06:30:49;7.00;;;3.90;;
70078;SDS011;57451;52.496;13.456;2023-07-16T06:33:16;6.72;;;3.80;;
70078;SDS011;57451;52.496;13.456;2023-07-16T06:35:44;5.72;;;3.60;;
70078;SDS011;57451;52.496;13.456;2023-07-16T06:38:13;6.40;;;3.63;;
70078;SDS011;57451;52.496;13.456;2023-07-16T06:40:45;7.30;;;3.77;;
70078;SDS011;57451;52.496;13.456;2023-07-16T06:43:14;5.50;;;3.65;;
70078;SDS011;57451;52.496;13.456;2023-07-16T06:45:41;8.82;;;3.72;;
70078;SDS011;57451;52.496;13.456;2023-07-16T06:48:09;6.40;;;3.75;;
70078;SDS011;57451;52.496;13.456;2023-07-16T06:50:36;5.55;;;3.63;;
70078;SDS011;57451;52.496;13.456;2023-07-16T06:53:03;6.10;;;3.67;;
70078;SDS011;57451;52.496;13.456;2023-07-16T06:55:32;5.45;;;3.50;;
70078;SDS011;57451;52.496;13.456;2023-07-16T06:57:59;5.78;;;3.50;;
70078;SDS011;57451;52.496;13.456;2023-07-16T07:00:27;5.72;;;3.83;;
70078;SDS011;57451;52.496;13.456;2023-07-16T07:02:55;7.30;;;3.50;;
70078;SDS011;57451;52.496;13.456;2023-07-16T07:05:22;6.50;;;3.27;;
70078;SDS011;57451;52.496;13.456;2023-07-16T07:07:49;5.28;;;3.15;;
70078;SDS011;57451;52.496;13.456;2023-07-16T07:10:17;5.55;;;3.38;;
70078;SDS011;57451;52.496;13.456;2023-07-16T07:12:45;5.43;;;3.17;;
70078;SDS011;57451;52.496;13.456;2023-07-16T07:15:13;5.65;;;3.25;;
70078;SDS011;57451;52.496;13.456;2023-07-16T07:17:40;6.70;;;3.30;;
70078;SDS011;57451;52.496;13.456;2023-07-16T07:20:10;5.68;;;3.08;;
70078;SDS011;57451;52.496;13.456;2023-07-16T07:22:38;6.18;;;3.70;;
70078;SDS011;57451;52.496;13.456;2023-07-16T07:25:06;6.55;;;3.40;;
70078;SDS011;57451;52.496;13.456;2023-07-16T07:27:33;5.00;;;3.50;;
70078;SDS011;57451;52.496;13.456;2023-07-16T07:30:02;5.00;;;3.20;;
70078;SDS011;57451;52.496;13.456;2023-07-16T07:32:29;5.15;;;3.33;;
70078;SDS011;57451;52.496;13.456;2023-07-16T07:34:57;5.43;;;3.53;;
70078;SDS011;57451;52.496;13.456;2023-07-16T07:37:25;5.05;;;3.28;;
70078;SDS011;57451;52.496;13.456;2023-07-16T07:39:53;4.85;;;3.42;;
70078;SDS011;57451;52.496;13.456;2023-07-16T07:42:20;5.43;;;3.60;;
70078;SDS011;57451;52.496;13.456;2023-07-16T07:44:51;6.57;;;3.45;;
70078;SDS011;57451;52.496;13.456;2023-07-16T07:47:20;5.55;;;3.35;;
70078;SDS011;57451;52.496;13.456;2023-07-16T07:49:47;7.28;;;3.40;;
70078;SDS011;57451;52.496;13.456;2023-07-16T07:52:14;6.35;;;3.47;;
70078;SDS011;57451;52.496;13.456;2023-07-16T07:54:41;5.07;;;3.23;;
70078;SDS011;57451;52.496;13.456;2023-07-16T07:57:09;5.18;;;3.15;;
70078;SDS011;57451;52.496;13.456;2023-07-16T07:59:36;5.75;;;3.58;;
70078;SDS011;57451;52.496;13.456;2023-07-16T08:02:04;4.63;;;3.17;;
70078;SDS011;57451;52.496;13.456;2023-07-16T08:04:33;5.47;;;3.30;;
70078;SDS011;57451;52.496;13.456;2023-07-16T08:07:01;5.50;;;3.17;;
70078;SDS011;57451;52.496;13.456;2023-07-16T08:09:30;4.97;;;3.03;;
70078;SDS011;57451;52.496;13.456;2023-07-16T08:11:57;5.05;;;3.22;;
70078;SDS011;57451;52.496;13.456;2023-07-16T08:14:25;5.90;;;3.17;;
70078;SDS011;57451;52.496;13.456;2023-07-16T08:16:52;6.90;;;2.97;;
70078;SDS011;57451;52.496;13.456;2023-07-16T08:19:24;4.87;;;3.10;;
70078;SDS011;57451;52.496;13.456;2023-07-16T08:21:53;4.85;;;3.10;;
70078;SDS011;57451;52.496;13.456;2023-07-16T08:24:20;5.32;;;3.05;;
70078;SDS011;57451;52.496;13.456;2023-07-16T08:26:48;4.65;;;2.72;;
70078;SDS011;57451;52.496;13.456;2023-07-16T08:29:15;4.85;;;2.55;;
70078;SDS011;57451;52.496;13.456;2023-07-16T08:31:42;5.13;;;2.47;;
70078;SDS011;57451;52.496;13.456;2023-07-16T08:34:10;4.32;;;2.30;;
70078;SDS011;57451;52.496;13.456;2023-07-16T08:36:37;4.75;;;2.47;;
70078;SDS011;57451;52.496;13.456;2023-07-16T08:39:06;4.47;;;2.35;;
70078;SDS011;57451;52.496;13.456;2023-07-16T08:41:34;5.43;;;2.42;;
70078;SDS011;57451;52.496;13.456;2023-07-16T08:44:01;4.90;;;2.57;;
70078;SDS011;57451;52.496;13.456;2023-07-16T08:46:29;4.45;;;2.58;;
70078;SDS011;57451;52.496;13.456;2023-07-16T08:48:56;5.72;;;2.60;;
70078;SDS011;57451;52.496;13.456;2023-07-16T08:51:25;5.50;;;2.55;;
70078;SDS011;57451;52.496;13.456;2023-07-16T08:53:54;5.90;;;2.50;;
70078;SDS011;57451;52.496;13.456;2023-07-16T08:56:23;5.37;;;2.40;;
70078;SDS011;57451;52.496;13.456;2023-07-16T08:58:50;4.60;;;2.38;;
70078;SDS011;57451;52.496;13.456;2023-07-16T09:01:22;3.83;;;2.30;;
70078;SDS011;57451;52.496;13.456;2023-07-16T09:03:50;5.45;;;2.70;;
70078;SDS011;57451;52.496;13.456;2023-07-16T09:06:17;4.75;;;2.67;;
70078;SDS011;57451;52.496;13.456;2023-07-16T09:08:45;5.47;;;2.70;;
70078;SDS011;57451;52.496;13.456;2023-07-16T09:11:12;4.68;;;2.30;;
70078;SDS011;57451;52.496;13.456;2023-07-16T09:13:44;5.75;;;2.75;;
70078;SDS011;57451;52.496;13.456;2023-07-16T09:16:12;5.00;;;2.92;;
70078;SDS011;57451;52.496;13.456;2023-07-16T09:18:40;5.95;;;2.80;;
70078;SDS011;57451;52.496;13.456;2023-07-16T09:21:08;6.20;;;2.80;;
70078;SDS011;57451;52.496;13.456;2023-07-16T09:23:35;5.88;;;2.80;;
70078;SDS011;57451;52.496;13.456;2023-07-16T09:26:03;6.75;;;2.80;;
70078;SDS011;57451;52.496;13.456;2023-07-16T09:28:31;7.97;;;2.95;;
70078;SDS011;57451;52.496;13.456;2023-07-16T09:31:04;6.18;;;2.70;;
70078;SDS011;57451;52.496;13.456;2023-07-16T09:33:33;4.93;;;2.57;;
70078;SDS011;57451;52.496;13.456;2023-07-16T09:36:04;5.57;;;2.88;;
70078;SDS011;57451;52.496;13.456;2023-07-16T09:38:31;6.05;;;2.67;;
70078;SDS011;57451;52.496;13.456;2023-07-16T09:41:01;5.93;;;2.97;;
70078;SDS011;57451;52.496;13.456;2023-07-16T09:43:30;5.28;;;2.60;;
70078;SDS011;57451;52.496;13.456;2023-07-16T09:45:59;5.43;;;2.73;;
70078;SDS011;57451;52.496;13.456;2023-07-16T09:48:28;5.10;;;2.50;;
70078;SDS011;57451;52.496;13.456;2023-07-16T09:50:55;6.03;;;2.65;;
70078;SDS011;57451;52.496;13.456;2023-07-16T09:53:23;4.38;;;2.70;;
70078;SDS011;57451;52.496;13.456;2023-07-16T09:55:54;6.78;;;2.70;;
70078;SDS011;57451;52.496;13.456;2023-07-16T09:58:22;5.53;;;2.40;;
70078;SDS011;57451;52.496;13.456;2023-07-16T10:00:51;6.55;;;2.35;;
70078;SDS011;57451;52.496;13.456;2023-07-16T10:03:19;5.60;;;2.67;;
70078;SDS011;57451;52.496;13.456;2023-07-16T10:05:48;4.55;;;2.50;;
70078;SDS011;57451;52.496;13.456;2023-07-16T10:08:19;4.57;;;2.70;;
70078;SDS011;57451;52.496;13.456;2023-07-16T10:10:49;5.77;;;2.60;;
70078;SDS011;57451;52.496;13.456;2023-07-16T10:13:22;4.63;;;2.38;;
70078;SDS011;57451;52.496;13.456;2023-07-16T10:15:50;6.05;;;2.70;;
70078;SDS011;57451;52.496;13.456;2023-07-16T10:18:22;4.72;;;2.45;;
70078;SDS011;57451;52.496;13.456;2023-07-16T10:20:52;4.60;;;2.45;;
70078;SDS011;57451;52.496;13.456;2023-07-16T10:23:21;4.13;;;2.40;;
70078;SDS011;57451;52.496;13.456;2023-07-16T10:25:58;5.82;;;2.55;;
70078;SDS011;57451;52.496;13.456;2023-07-16T10:28:28;5.10;;;2.90;;
70078;SDS011;57451;52.496;13.456;2023-07-16T10:30:56;6.88;;;2.70;;
70078;SDS011;57451;52.496;13.456;2023-07-16T10:33:23;5.38;;;2.42;;
70078;SDS011;57451;52.496;13.456;2023-07-16T10:35:52;4.72;;;2.85;;
70078;SDS011;57451;52.496;13.456;2023-07-16T10:38:20;5.47;;;2.90;;
70078;SDS011;57451;52.496;13.456;2023-07-16T10:40:47;7.22;;;2.63;;
70078;SDS011;57451;52.496;13.456;2023-07-16T10:43:14;5.10;;;2.40;;
70078;SDS011;57451;52.496;13.456;2023-07-16T10:45:42;5.80;;;2.75;;
70078;SDS011;57451;52.496;13.456;2023-07-16T10:48:12;5.13;;;2.70;;
70078;SDS011;57451;52.496;13.456;2023-07-16T10:50:39;4.55;;;2.60;;
70078;SDS011;57451;52.496;13.456;2023-07-16T10:53:08;3.90;;;2.40;;
70078;SDS011;57451;52.496;13.456;2023-07-16T10:55:35;5.50;;;2.80;;
70078;SDS011;57451;52.496;13.456;2023-07-16T10:58:05;5.95;;;2.70;;
70078;SDS011;57451;52.496;13.456;2023-07-16T11:00:36;6.88;;;2.45;;
70078;SDS011;57451;52.496;13.456;2023-07-16T11:03:05;4.63;;;2.90;;
70078;SDS011;57451;52.496;13.456;2023-07-16T11:05:33;4.85;;;2.63;;
70078;SDS011;57451;52.496;13.456;2023-07-16T11:08:00;4.53;;;2.53;;
70078;SDS011;57451;52.496;13.456;2023-07-16T11:10:30;6.72;;;3.08;;
70078;SDS011;57451;52.496;13.456;2023-07-16T11:12:57;5.18;;;3.20;;
70078;SDS011;57451;52.496;13.456;2023-07-16T11:15:31;6.82;;;3.00;;
70078;SDS011;57451;52.496;13.456;2023-07-16T11:18:00;5.07;;;2.72;;
70078;SDS011;57451;52.496;13.456;2023-07-16T11:20:28;5.75;;;2.80;;
70078;SDS011;57451;52.496;13.456;2023-07-16T11:22:57;5.32;;;2.90;;
70078;SDS011;57451;52.496;13.456;2023-07-16T11:25:26;4.33;;;2.70;;
70078;SDS011;57451;52.496;13.456;2023-07-16T11:27:55;5.35;;;3.05;;
70078;SDS011;57451;52.496;13.456;2023-07-16T11:30:23;4.18;;;2.80;;
70078;SDS011;57451;52.496;13.456;2023-07-16T11:32:52;6.22;;;2.90;;
70078;SDS011;57451;52.496;13.456;2023-07-16T11:35:20;4.93;;;2.83;;
70078;SDS011;57451;52.496;13.456;2023-07-16T11:37:48;5.72;;;2.72;;
70078;SDS011;57451;52.496;13.456;2023-07-16T11:40:16;6.30;;;3.20;;
70078;SDS011;57451;52.496;13.456;2023-07-16T11:42:44;6.57;;;2.90;;
70078;SDS011;57451;52.496;13.456;2023-07-16T11:45:16;6.72;;;3.20;;
70078;SDS011;57451;52.496;13.456;2023-07-16T11:47:45;6.47;;;3.17;;
70078;SDS011;57451;52.496;13.456;2023-07-16T11:50:12;5.20;;;2.70;;
70078;SDS011;57451;52.496;13.456;2023-07-16T11:52:40;6.28;;;3.10;;
70078;SDS011;57451;52.496;13.456;2023-07-16T11:55:08;5.93;;;2.95;;
70078;SDS011;57451;52.496;13.456;2023-07-16T11:57:35;5.30;;;2.70;;
70078;SDS011;57451;52.496;13.456;2023-07-16T12:00:03;6.53;;;2.58;;
70078;SDS011;57451;52.496;13.456;2023-07-16T12:02:32;4.23;;;2.30;;
70078;SDS011;57451;52.496;13.456;2023-07-16T12:05:00;4.43;;;2.38;;
70078;SDS011;57451;52.496;13.456;2023-07-16T12:07:31;4.70;;;2.53;;
70078;SDS011;57451;52.496;13.456;2023-07-16T12:10:02;7.75;;;2.70;;
70078;SDS011;57451;52.496;13.456;2023-07-16T12:12:30;5.22;;;2.40;;
70078;SDS011;57451;52.496;13.456;2023-07-16T12:14:59;6.83;;;2.40;;
70078;SDS011;57451;52.496;13.456;2023-07-16T12:17:26;5.90;;;2.47;;
70078;SDS011;57451;52.496;13.456;2023-07-16T12:19:55;4.97;;;2.15;;
70078;SDS011;57451;52.496;13.456;2023-07-16T12:22:22;5.55;;;2.60;;
70078;SDS011;57451;52.496;13.456;2023-07-16T12:24:51;4.72;;;2.28;;
70078;SDS011;57451;52.496;13.456;2023-07-16T12:27:18;5.03;;;2.17;;
70078;SDS011;57451;52.496;13.456;2023-07-16T12:29:47;5.70;;;2.40;;
70078;SDS011;57451;52.496;13.456;2023-07-16T12:32:15;6.03;;;2.30;;
70078;SDS011;57451;52.496;13.456;2023-07-16T12:34:42;5.07;;;1.77;;
70078;SDS011;57451;52.496;13.456;2023-07-16T12:37:14;4.75;;;2.47;;
70078;SDS011;57451;52.496;13.456;2023-07-16T12:39:41;4.68;;;2.10;;
70078;SDS011;57451;52.496;13.456;2023-07-16T12:42:12;5.45;;;2.55;;
70078;SDS011;57451;52.496;13.456;2023-07-16T12:44:39;5.45;;;2.30;;
70078;SDS011;57451;52.496;13.456;2023-07-16T12:47:07;4.85;;;2.20;;
70078;SDS011;57451;52.496;13.456;2023-07-16T12:49:38;4.65;;;2.08;;
70078;SDS011;57451;52.496;13.456;2023-07-16T12:52:05;6.70;;;2.28;;
70078;SDS011;57451;52.496;13.456;2023-07-16T12:54:34;4.18;;;2.13;;
70078;SDS011;57451;52.496;13.456;2023-07-16T12:57:01;4.75;;;2.10;;
70078;SDS011;57451;52.496;13.456;2023-07-16T12:59:29;5.57;;;2.20;;
70078;SDS011;57451;52.496;13.456;2023-07-16T13:01:57;5.10;;;1.92;;
70078;SDS011;57451;52.496;13.456;2023-07-16T13:04:25;5.70;;;2.05;;
70078;SDS011;57451;52.496;13.456;2023-07-16T13:06:52;4.45;;;2.17;;
70078;SDS011;57451;52.496;13.456;2023-07-16T13:09:19;4.40;;;2.15;;
70078;SDS011;57451;52.496;13.456;2023-07-16T13:11:48;5.88;;;2.15;;
70078;SDS011;57451;52.496;13.456;2023-07-16T13:14:16;4.53;;;1.90;;
70078;SDS011;57451;52.496;13.456;2023-07-16T13:16:44;4.93;;;2.08;;
70078;SDS011;57451;52.496;13.456;2023-07-16T13:19:11;3.90;;;2.08;;
70078;SDS011;57451;52.496;13.456;2023-07-16T13:21:38;6.70;;;2.35;;
70078;SDS011;57451;52.496;13.456;2023-07-16T13:24:06;6.22;;;2.60;;
70078;SDS011;57451;52.496;13.456;2023-07-16T13:26:33;5.10;;;2.42;;
70078;SDS011;57451;52.496;13.456;2023-07-16T13:29:02;4.13;;;2.10;;
70078;SDS011;57451;52.496;13.456;2023-07-16T13:31:29;5.88;;;2.75;;
70078;SDS011;57451;52.496;13.456;2023-07-16T13:33:56;5.05;;;2.10;;
70078;SDS011;57451;52.496;13.456;2023-07-16T13:36:24;5.88;;;2.47;;
70078;SDS011;57451;52.496;13.456;2023-07-16T13:38:51;4.50;;;1.85;;
70078;SDS011;57451;52.496;13.456;2023-07-16T13:41:18;4.63;;;2.13;;
70078;SDS011;57451;52.496;13.456;2023-07-16T13:43:46;5.07;;;2.17;;
70078;SDS011;57451;52.496;13.456;2023-07-16T13:46:14;5.22;;;2.20;;
70078;SDS011;57451;52.496;13.456;2023-07-16T13:48:42;4.20;;;2.05;;
70078;SDS011;57451;52.496;13.456;2023-07-16T13:51:23;5.32;;;2.47;;
70078;SDS011;57451;52.496;13.456;2023-07-16T13:53:51;4.55;;;2.30;;
70078;SDS011;57451;52.496;13.456;2023-07-16T13:56:18;4.50;;;2.30;;
70078;SDS011;57451;52.496;13.456;2023-07-16T13:58:46;4.25;;;2.15;;
70078;SDS011;57451;52.496;13.456;2023-07-16T14:01:15;4.85;;;2.42;;
70078;SDS011;57451;52.496;13.456;2023-07-16T14:03:43;4.80;;;2.40;;
70078;SDS011;57451;52.496;13.456;2023-07-16T14:06:11;5.25;;;2.15;;
70078;SDS011;57451;52.496;13.456;2023-07-16T14:08:38;5.97;;;2.30;;
70078;SDS011;57451;52.496;13.456;2023-07-16T14:11:05;4.18;;;2.00;;
70078;SDS011;57451;52.496;13.456;2023-07-16T14:13:33;4.55;;;2.15;;
70078;SDS011;57451;52.496;13.456;2023-07-16T14:16:00;8.10;;;2.53;;
70078;SDS011;57451;52.496;13.456;2023-07-16T14:18:29;5.15;;;2.30;;
70078;SDS011;57451;52.496;13.456;2023-07-16T14:20:56;4.95;;;2.20;;
70078;SDS011;57451;52.496;13.456;2023-07-16T14:23:24;6.00;;;2.03;;
70078;SDS011;57451;52.496;13.456;2023-07-16T14:25:51;4.43;;;2.20;;
70078;SDS011;57451;52.496;13.456;2023-07-16T14:28:18;4.32;;;2.40;;
70078;SDS011;57451;52.496;13.456;2023-07-16T14:30:46;5.22;;;2.15;;
70078;SDS011;57451;52.496;13.456;2023-07-16T14:33:13;6.65;;;2.22;;
70078;SDS011;57451;52.496;13.456;2023-07-16T14:35:41;4.43;;;1.80;;
70078;SDS011;57451;52.496;13.456;2023-07-16T14:38:09;4.15;;;2.00;;
70078;SDS011;57451;52.496;13.456;2023-07-16T14:40:36;5.38;;;2.15;;
70078;SDS011;57451;52.496;13.456;2023-07-16T14:43:04;4.65;;;2.15;;